Terminal Aerodrome Forecast
Issued by NWS

Home | Current Version | Previous Version | Text Only | Print | Product List | Glossary On
Versions: 1 2 3 4 5 6 7 8 9 10 11 12 13 14 15 16 17 18 19 20 21 22 23 24 25 26 27 28 29 30 31 32
000
FTUS41 KGYX 181157 AAA
TAFMHT
TAF AMD
KMHT 181157Z 1812/1912 VRB02KT 5SM -SN FEW025 BKN040
     FM181300 VRB02KT 4SM -SN BR OVC025
     FM181700 VRB03KT 2SM -SN BR SCT005 OVC010
      TEMPO 1821/1824 4SM -FZRA OVC015=

USA.gov is the U.S. government's official web portal to all federal, state and local government web resources and services.